createdAt,value
2023-03-04T00:00:09.804Z,6.40
2023-03-04T00:02:39.262Z,6.30
2023-03-04T00:05:08.431Z,6.30
2023-03-04T00:07:36.538Z,6.30
2023-03-04T00:10:05.063Z,6.40
2023-03-04T00:12:33.026Z,6.40
2023-03-04T00:15:01.303Z,6.40
2023-03-04T00:17:30.249Z,6.40
2023-03-04T00:20:00.322Z,6.40
2023-03-04T00:22:28.300Z,6.40
2023-03-04T00:24:56.320Z,6.40
2023-03-04T00:27:24.390Z,6.30
2023-03-04T00:29:52.383Z,6.30
2023-03-04T00:32:20.638Z,6.30
2023-03-04T00:34:48.745Z,6.30
2023-03-04T00:37:18.097Z,6.30
2023-03-04T00:39:46.785Z,6.40
2023-03-04T00:42:14.768Z,6.30
2023-03-04T00:44:42.707Z,6.40
2023-03-04T00:47:12.378Z,6.40
2023-03-04T00:49:40.552Z,6.40
2023-03-04T00:52:08.630Z,6.40
2023-03-04T00:54:37.982Z,6.40
2023-03-04T00:57:06.086Z,6.40
2023-03-04T00:59:34.265Z,6.40
2023-03-04T01:02:02.397Z,6.40
2023-03-04T01:04:30.476Z,6.40
2023-03-04T01:06:58.370Z,6.50
2023-03-04T01:09:26.872Z,6.50
2023-03-04T01:11:56.256Z,6.40
2023-03-04T01:14:24.458Z,6.40
2023-03-04T01:16:52.820Z,6.40
2023-03-04T01:19:21.390Z,6.40
2023-03-04T01:21:49.787Z,6.40
2023-03-04T01:24:18.016Z,6.40
2023-03-04T01:26:46.014Z,6.40
2023-03-04T01:29:15.420Z,6.40
2023-03-04T01:31:43.623Z,6.40
2023-03-04T01:34:11.534Z,6.40
2023-03-04T01:36:39.531Z,6.40
2023-03-04T01:39:07.631Z,6.40
2023-03-04T01:41:35.751Z,6.40
2023-03-04T01:44:04.381Z,6.40
2023-03-04T01:46:34.253Z,6.40
2023-03-04T01:49:02.291Z,6.40
2023-03-04T01:51:30.395Z,6.50
2023-03-04T01:53:58.437Z,6.40
2023-03-04T01:56:29.618Z,6.40
2023-03-04T01:59:16.255Z,6.30
2023-03-04T02:01:47.946Z,6.30
2023-03-04T02:04:17.586Z,6.40
2023-03-04T02:06:46.770Z,6.40
2023-03-04T02:09:15.941Z,6.30
2023-03-04T02:11:45.169Z,6.30
2023-03-04T02:14:13.948Z,6.30
2023-03-04T02:16:41.948Z,6.20
2023-03-04T02:19:21.525Z,6.20
2023-03-04T02:21:49.692Z,6.20
2023-03-04T02:24:24.223Z,6.20
2023-03-04T02:26:53.797Z,6.20
2023-03-04T02:29:22.342Z,6.20
2023-03-04T02:31:52.353Z,6.20
2023-03-04T02:34:23.635Z,6.20
2023-03-04T02:36:53.758Z,6.20
2023-03-04T02:39:29.088Z,6.20
2023-03-04T02:41:58.757Z,6.20
2023-03-04T02:44:29.198Z,6.20
2023-03-04T02:46:58.158Z,6.20
2023-03-04T02:49:28.503Z,6.30
2023-03-04T02:52:01.686Z,6.20
2023-03-04T02:54:29.923Z,6.30
2023-03-04T02:57:01.162Z,6.20
2023-03-04T02:59:29.581Z,6.20
2023-03-04T03:01:57.979Z,6.20
2023-03-04T03:04:27.380Z,6.10
2023-03-04T03:06:55.479Z,6.20
2023-03-04T03:09:23.785Z,6.20
2023-03-04T03:11:52.187Z,6.30
2023-03-04T03:14:21.741Z,6.30
2023-03-04T03:16:49.801Z,6.30
2023-03-04T03:19:17.979Z,6.20
2023-03-04T03:21:45.923Z,6.20
2023-03-04T03:24:13.817Z,6.10
2023-03-04T03:26:41.825Z,6.10
2023-03-04T03:29:09.845Z,6.20
2023-03-04T03:31:39.442Z,6.20
2023-03-04T03:34:07.472Z,6.10
2023-03-04T03:36:35.566Z,6.10
2023-03-04T03:39:03.552Z,6.20
2023-03-04T03:41:31.674Z,6.20
2023-03-04T03:43:59.711Z,6.10
2023-03-04T03:46:27.861Z,6.10
2023-03-04T03:48:57.344Z,6.10
2023-03-04T03:51:25.333Z,6.10
2023-03-04T03:53:53.344Z,6.10
2023-03-04T03:56:21.663Z,6.10
2023-03-04T03:58:49.673Z,6.10
2023-03-04T04:01:17.648Z,6.10
2023-03-04T04:03:45.691Z,6.10
2023-03-04T04:06:15.167Z,6.20
2023-03-04T04:08:43.493Z,6.20
2023-03-04T04:11:12.481Z,6.20
2023-03-04T04:13:40.485Z,6.20
2023-03-04T04:16:10.388Z,6.20
2023-03-04T04:18:38.969Z,6.20
2023-03-04T04:21:07.805Z,6.10
2023-03-04T04:23:37.165Z,6.10
2023-03-04T04:26:05.454Z,6.10
2023-03-04T04:28:33.568Z,6.10
2023-03-04T04:31:01.586Z,6.10
2023-03-04T04:33:29.834Z,6.10
2023-03-04T04:35:57.833Z,6.10
2023-03-04T04:38:26.098Z,6.00
2023-03-04T04:40:57.555Z,6.10
2023-03-04T04:43:25.802Z,6.00
2023-03-04T04:45:54.067Z,6.00
2023-03-04T04:48:22.214Z,6.00
2023-03-04T04:50:56.105Z,6.00
2023-03-04T04:53:24.126Z,6.00
2023-03-04T04:55:52.110Z,6.00
2023-03-04T04:58:21.599Z,5.90
2023-03-04T05:00:50.056Z,5.90
2023-03-04T05:03:18.846Z,5.80
2023-03-04T05:05:47.238Z,5.80
2023-03-04T05:08:15.453Z,5.90
2023-03-04T05:10:43.433Z,5.90
2023-03-04T05:13:11.475Z,5.80
2023-03-04T05:15:40.997Z,5.80
2023-03-04T05:18:09.089Z,5.70
2023-03-04T05:20:37.530Z,5.70
2023-03-04T05:23:05.818Z,5.70
2023-03-04T05:25:34.082Z,5.70
2023-03-04T05:28:02.897Z,5.70
2023-03-04T05:30:31.050Z,5.80
2023-03-04T05:33:00.381Z,5.80
2023-03-04T05:35:29.187Z,5.80
2023-03-04T05:37:57.297Z,5.70
2023-03-04T05:40:25.760Z,5.70
2023-03-04T05:42:53.808Z,5.80
2023-03-04T05:45:21.825Z,5.80
2023-03-04T05:47:49.988Z,5.80
2023-03-04T05:50:19.981Z,5.80
2023-03-04T05:52:48.116Z,5.80
2023-03-04T05:55:16.864Z,5.80
2023-03-04T05:57:45.737Z,5.80
2023-03-04T06:00:15.533Z,5.70
2023-03-04T06:02:44.828Z,5.80
2023-03-04T06:05:14.800Z,5.80
2023-03-04T06:07:44.964Z,5.80
2023-03-04T06:10:15.557Z,5.80
2023-03-04T06:12:44.094Z,5.80
2023-03-04T06:15:13.018Z,5.80
2023-03-04T06:17:43.046Z,5.80
2023-03-04T06:20:13.087Z,5.80
2023-03-04T06:22:41.138Z,5.90
2023-03-04T06:25:11.276Z,5.80
2023-03-04T06:27:39.410Z,5.80
2023-03-04T06:30:08.635Z,5.90
2023-03-04T06:32:37.028Z,5.80
2023-03-04T06:35:05.852Z,5.80
2023-03-04T06:37:34.052Z,5.80
2023-03-04T06:40:03.545Z,5.80
2023-03-04T06:42:33.006Z,5.80
2023-03-04T06:45:01.449Z,5.80
2023-03-04T06:47:30.154Z,5.80
2023-03-04T06:49:58.159Z,5.80
2023-03-04T06:52:26.384Z,5.80
2023-03-04T06:54:54.322Z,5.80
2023-03-04T06:57:22.385Z,5.90
2023-03-04T06:59:52.043Z,5.90
2023-03-04T07:02:20.263Z,5.90
2023-03-04T07:04:48.536Z,5.80
2023-03-04T07:07:16.825Z,5.90
2023-03-04T07:09:44.790Z,5.90
2023-03-04T07:12:12.899Z,5.90
2023-03-04T07:14:40.956Z,5.90
2023-03-04T07:17:10.361Z,5.90
2023-03-04T07:19:38.481Z,5.90
2023-03-04T07:22:06.481Z,5.90
2023-03-04T07:24:34.559Z,6.00
2023-03-04T07:27:02.606Z,6.00
2023-03-04T07:29:30.705Z,6.00
2023-03-04T07:31:59.094Z,6.00
2023-03-04T07:34:28.940Z,6.00
2023-03-04T07:36:57.195Z,6.00
2023-03-04T07:39:25.306Z,6.00
2023-03-04T07:41:53.548Z,6.00
2023-03-04T07:44:21.825Z,6.00
2023-03-04T07:46:49.866Z,6.00
2023-03-04T07:49:17.976Z,6.00
2023-03-04T07:51:47.372Z,6.00
2023-03-04T07:54:15.646Z,6.10
2023-03-04T07:56:44.614Z,6.10
2023-03-04T07:59:12.606Z,6.10
2023-03-04T08:01:41.025Z,6.10
2023-03-04T08:04:09.348Z,6.10
2023-03-04T08:06:37.463Z,6.20
2023-03-04T08:09:09.856Z,6.20
2023-03-04T08:11:39.471Z,6.20
2023-03-04T08:14:09.248Z,6.20
2023-03-04T08:16:37.325Z,6.20
2023-03-04T08:19:06.327Z,6.30
2023-03-04T08:21:34.651Z,6.30
2023-03-04T08:24:08.439Z,6.20
2023-03-04T08:26:42.163Z,6.30
2023-03-04T08:29:12.050Z,6.30
2023-03-04T08:31:40.398Z,6.30
2023-03-04T08:34:10.637Z,6.40
2023-03-04T08:36:39.069Z,6.40
2023-03-04T08:39:07.453Z,6.40
2023-03-04T08:41:35.589Z,6.40
2023-03-04T08:44:05.361Z,6.40
2023-03-04T08:46:33.493Z,6.50
2023-03-04T08:49:01.558Z,6.50
2023-03-04T08:51:29.769Z,6.40
2023-03-04T08:53:57.965Z,6.40
2023-03-04T08:56:26.652Z,6.30
2023-03-04T08:58:54.849Z,6.30
2023-03-04T09:01:24.303Z,6.30
2023-03-04T09:03:53.408Z,6.30
2023-03-04T09:06:21.515Z,6.30
2023-03-04T09:08:49.829Z,6.30
2023-03-04T09:11:18.180Z,6.40
2023-03-04T09:13:46.285Z,6.40
2023-03-04T09:16:16.083Z,6.20
2023-03-04T09:18:45.531Z,6.10
2023-03-04T09:21:13.598Z,6.10
2023-03-04T09:23:42.255Z,6.00
2023-03-04T09:26:19.085Z,6.00
2023-03-04T09:28:47.139Z,6.00
2023-03-04T09:31:15.835Z,6.10
2023-03-04T09:33:45.708Z,6.20
2023-03-04T09:36:15.739Z,6.30
2023-03-04T09:38:44.605Z,6.50
2023-03-04T09:41:19.537Z,6.60
2023-03-04T09:43:49.611Z,6.70
2023-03-04T09:46:24.051Z,6.70
2023-03-04T09:48:56.826Z,6.70
2023-03-04T09:51:42.743Z,6.70
2023-03-04T09:54:16.371Z,6.80
2023-03-04T09:56:44.455Z,6.80
2023-03-04T09:59:21.120Z,6.60
2023-03-04T10:01:53.052Z,6.60
2023-03-04T10:04:32.568Z,6.40
2023-03-04T10:07:02.446Z,6.30
2023-03-04T10:09:40.897Z,6.40
2023-03-04T10:12:14.497Z,6.50
2023-03-04T10:14:51.067Z,6.60
2023-03-04T10:17:24.935Z,6.70
2023-03-04T10:19:59.368Z,6.80
2023-03-04T10:22:33.072Z,7.00
2023-03-04T10:25:14.737Z,7.00
2023-03-04T10:27:44.013Z,6.90
2023-03-04T10:30:27.995Z,6.90
2023-03-04T10:32:56.514Z,6.80
2023-03-04T10:35:32.456Z,6.80
2023-03-04T10:38:04.554Z,6.80
2023-03-04T10:40:39.847Z,6.90
2023-03-04T10:43:14.481Z,7.00
2023-03-04T10:45:44.770Z,7.20
2023-03-04T10:48:24.113Z,7.20
2023-03-04T10:50:53.684Z,7.10
2023-03-04T10:58:44.310Z,6.80
2023-03-04T11:01:17.753Z,6.80
2023-03-04T11:03:50.701Z,6.70
2023-03-04T11:06:22.090Z,6.80
2023-03-04T11:08:58.232Z,7.00
2023-03-04T11:11:34.493Z,7.00
2023-03-04T11:14:09.708Z,7.10
2023-03-04T11:16:38.084Z,7.20
2023-03-04T11:19:14.381Z,7.00
2023-03-04T11:21:44.210Z,6.80
2023-03-04T11:24:28.064Z,6.90
2023-03-04T11:27:02.902Z,7.00
2023-03-04T11:29:35.206Z,7.20
2023-03-04T11:32:10.484Z,7.20
2023-03-04T11:34:44.046Z,7.30
2023-03-04T11:37:22.448Z,7.50
2023-03-04T11:39:55.714Z,7.50
2023-03-04T11:42:33.104Z,7.60
2023-03-04T11:45:01.231Z,7.60
2023-03-04T11:47:57.555Z,7.60
2023-03-04T11:50:32.543Z,7.50
2023-03-04T11:53:29.069Z,7.40
2023-03-04T11:56:11.424Z,7.40
2023-03-04T11:58:50.780Z,7.40
2023-03-04T12:01:28.744Z,7.50
2023-03-04T12:04:14.956Z,7.70
2023-03-04T12:06:57.089Z,7.80
2023-03-04T12:09:41.248Z,7.80
2023-03-04T12:12:26.743Z,7.80
2023-03-04T12:15:03.344Z,7.60
2023-03-04T12:17:56.170Z,7.50
2023-03-04T12:20:58.478Z,7.40
2023-03-04T12:23:46.749Z,7.10
2023-03-04T12:26:26.732Z,7.00
2023-03-04T12:29:03.142Z,7.10
2023-03-04T12:31:40.154Z,7.00
2023-03-04T12:34:35.008Z,7.00
2023-03-04T12:37:22.787Z,7.00
2023-03-04T12:40:07.339Z,7.00
2023-03-04T12:42:52.044Z,7.00
2023-03-04T12:45:25.442Z,7.00
2023-03-04T12:48:06.599Z,7.10
2023-03-04T12:50:42.898Z,7.20
2023-03-04T12:53:20.362Z,7.40
2023-03-04T12:55:50.798Z,7.50
2023-03-04T12:58:24.720Z,7.40
2023-03-04T13:01:04.622Z,7.40
2023-03-04T13:03:42.056Z,7.50
2023-03-04T13:06:20.759Z,7.50
2023-03-04T13:08:59.528Z,7.50
2023-03-04T13:11:47.129Z,7.30
2023-03-04T13:14:29.731Z,7.30
2023-03-04T13:17:01.772Z,7.20
2023-03-04T13:19:52.687Z,7.10
2023-03-04T13:22:47.179Z,6.80
2023-03-04T13:25:34.703Z,6.70
2023-03-04T13:28:19.886Z,6.70
2023-03-04T13:31:18.622Z,6.70
2023-03-04T13:33:59.144Z,6.80
2023-03-04T13:36:34.386Z,6.90
2023-03-04T13:39:05.282Z,6.90
2023-03-04T13:41:46.873Z,6.90
2023-03-04T13:44:34.250Z,6.90
2023-03-04T13:47:14.972Z,6.90
2023-03-04T13:49:42.997Z,7.00
2023-03-04T13:52:40.421Z,7.10
2023-03-04T13:55:32.109Z,7.10
2023-03-04T13:58:00.145Z,7.10
2023-03-04T14:00:29.728Z,7.00
2023-03-04T14:03:14.047Z,7.00
2023-03-04T14:05:42.402Z,6.90
2023-03-04T14:08:20.391Z,6.80
2023-03-04T14:10:57.070Z,6.80
2023-03-04T14:13:25.567Z,6.80
2023-03-04T14:15:58.229Z,6.70
2023-03-04T14:18:28.594Z,6.50
2023-03-04T14:20:59.950Z,6.30
2023-03-04T14:23:30.911Z,6.20
2023-03-04T14:26:11.729Z,6.20
2023-03-04T14:28:49.132Z,6.20
2023-03-04T14:31:20.324Z,6.20
2023-03-04T14:33:52.022Z,6.20
2023-03-04T14:36:23.496Z,6.30
2023-03-04T14:38:54.851Z,6.30
2023-03-04T14:41:27.121Z,6.30
2023-03-04T14:44:01.668Z,6.30
2023-03-04T14:46:33.893Z,6.20
2023-03-04T14:49:04.553Z,6.20
2023-03-04T14:51:41.693Z,6.20
2023-03-04T14:54:35.252Z,6.10
2023-03-04T14:57:22.202Z,6.20
2023-03-04T14:59:50.499Z,6.20
2023-03-04T15:02:31.322Z,6.10
2023-03-04T15:05:16.572Z,6.20
2023-03-04T15:07:53.045Z,6.20
2023-03-04T15:10:24.822Z,6.20
2023-03-04T15:12:57.534Z,6.10
2023-03-04T15:15:35.372Z,6.10
2023-03-04T15:18:05.539Z,6.20
2023-03-04T15:20:35.034Z,6.00
2023-03-04T15:23:08.409Z,6.00
2023-03-04T15:25:37.236Z,6.00
2023-03-04T15:28:07.160Z,6.00
2023-03-04T15:30:35.994Z,5.90
2023-03-04T15:33:04.109Z,5.90
2023-03-04T15:35:34.785Z,5.90
2023-03-04T15:38:03.167Z,5.90
2023-03-04T15:40:33.472Z,5.90
2023-03-04T15:43:04.948Z,5.90
2023-03-04T15:45:36.211Z,6.00
2023-03-04T15:48:07.922Z,6.00
2023-03-04T15:50:39.534Z,6.10
2023-03-04T15:53:10.079Z,6.00
2023-03-04T15:55:38.461Z,6.00
2023-03-04T15:58:07.717Z,5.90
2023-03-04T16:00:36.268Z,5.80
2023-03-04T16:03:04.560Z,5.70
2023-03-04T16:05:35.050Z,5.70
2023-03-04T16:08:04.509Z,5.80
2023-03-04T16:10:33.546Z,5.80
2023-03-04T16:13:01.664Z,5.70
2023-03-04T16:15:31.161Z,5.70
2023-03-04T16:17:59.668Z,5.60
2023-03-04T16:20:30.811Z,5.60
2023-03-04T16:23:01.407Z,5.60
2023-03-04T16:25:31.221Z,5.70
2023-03-04T16:28:02.736Z,5.60
2023-03-04T16:30:31.832Z,5.60
2023-03-04T16:33:00.164Z,5.60
2023-03-04T16:35:29.228Z,5.60
2023-03-04T16:37:58.549Z,5.50
2023-03-04T16:40:28.919Z,5.60
2023-03-04T16:42:58.687Z,5.60
2023-03-04T16:45:30.257Z,5.40
2023-03-04T16:47:58.486Z,5.40
2023-03-04T16:50:29.934Z,5.50
2023-03-04T16:52:58.900Z,5.40
2023-03-04T16:55:30.193Z,5.30
2023-03-04T16:58:08.013Z,5.30
2023-03-04T17:00:37.248Z,5.20
2023-03-04T17:03:12.707Z,5.10
2023-03-04T17:05:51.017Z,5.10
2023-03-04T17:08:19.335Z,5.10
2023-03-04T17:10:48.967Z,5.00
2023-03-04T17:13:23.237Z,4.90
2023-03-04T17:15:53.646Z,4.90
2023-03-04T17:18:24.450Z,4.90
2023-03-04T17:20:54.001Z,5.00
2023-03-04T17:23:29.964Z,4.90
2023-03-04T17:25:59.365Z,4.90
2023-03-04T17:28:32.233Z,4.90
2023-03-04T17:31:10.638Z,4.80
2023-03-04T17:33:41.176Z,4.80
2023-03-04T17:36:17.815Z,4.80
2023-03-04T17:38:52.840Z,4.70
2023-03-04T17:41:21.889Z,4.70
2023-03-04T17:43:57.019Z,4.80
2023-03-04T17:46:29.295Z,4.80
2023-03-04T17:49:06.406Z,4.80
2023-03-04T17:51:40.140Z,4.80
2023-03-04T17:54:10.189Z,4.80
2023-03-04T17:56:44.564Z,4.80
2023-03-04T17:59:15.560Z,4.80
2023-03-04T18:01:45.197Z,4.70
2023-03-04T18:04:13.737Z,4.70
2023-03-04T18:06:41.922Z,4.70
2023-03-04T18:09:10.435Z,4.70
2023-03-04T18:11:40.407Z,4.70
2023-03-04T18:14:09.033Z,4.60
2023-03-04T18:16:40.542Z,4.60
2023-03-04T18:19:09.631Z,4.60
2023-03-04T18:21:37.854Z,4.60
2023-03-04T18:24:06.991Z,4.50
2023-03-04T18:26:35.430Z,4.50
2023-03-04T18:29:03.515Z,4.50
2023-03-04T18:31:33.161Z,4.40
2023-03-04T18:34:04.657Z,4.40
2023-03-04T18:36:33.759Z,4.40
2023-03-04T18:39:04.530Z,4.50
2023-03-04T18:41:32.705Z,4.50
2023-03-04T18:44:00.797Z,4.50
2023-03-04T18:46:31.975Z,4.50
2023-03-04T18:49:04.760Z,4.50
2023-03-04T18:51:33.047Z,4.50
2023-03-04T18:54:01.075Z,4.50
2023-03-04T18:56:37.729Z,4.50
2023-03-04T18:59:08.369Z,4.40
2023-03-04T19:01:36.460Z,4.40
2023-03-04T19:04:10.420Z,4.30
2023-03-04T19:06:38.413Z,4.40
2023-03-04T19:09:07.645Z,4.40
2023-03-04T19:11:35.686Z,4.40
2023-03-04T19:14:03.890Z,4.40
2023-03-04T19:16:32.372Z,4.40
2023-03-04T19:19:00.401Z,4.40
2023-03-04T19:21:29.722Z,4.40
2023-03-04T19:23:57.878Z,4.50
2023-03-04T19:26:26.000Z,4.50
2023-03-04T19:28:53.931Z,4.50
2023-03-04T19:31:22.064Z,4.50
2023-03-04T19:33:50.166Z,4.50
2023-03-04T19:36:18.375Z,4.40
2023-03-04T19:38:48.891Z,4.40
2023-03-04T19:41:18.111Z,4.40
2023-03-04T19:43:46.170Z,4.40
2023-03-04T19:46:14.991Z,4.30
2023-03-04T19:48:45.050Z,4.30
2023-03-04T19:51:16.821Z,4.20
2023-03-04T19:53:44.996Z,4.20
2023-03-04T19:56:14.614Z,4.20
2023-03-04T19:58:42.733Z,4.10
2023-03-04T20:01:21.476Z,4.10
2023-03-04T20:03:49.726Z,4.20
2023-03-04T20:06:17.734Z,4.20
2023-03-04T20:08:45.786Z,4.20
2023-03-04T20:11:15.181Z,4.20
2023-03-04T20:13:43.111Z,4.20
2023-03-04T20:16:12.861Z,4.20
2023-03-04T20:18:41.916Z,4.30
2023-03-04T20:21:10.291Z,4.20
2023-03-04T20:23:38.365Z,4.20
2023-03-04T20:26:06.521Z,4.10
2023-03-04T20:28:35.996Z,4.10
2023-03-04T20:31:18.231Z,4.20
2023-03-04T20:33:48.516Z,4.10
2023-03-04T20:36:16.499Z,4.10
2023-03-04T20:38:44.519Z,4.10
2023-03-04T20:41:13.100Z,4.10
2023-03-04T20:43:42.435Z,4.10
2023-03-04T20:46:27.708Z,4.00
2023-03-04T20:48:56.477Z,4.10
2023-03-04T20:51:26.224Z,4.10
2023-03-04T20:53:55.423Z,4.10
2023-03-04T20:56:24.140Z,4.00
2023-03-04T20:58:55.341Z,4.00
2023-03-04T21:01:24.886Z,4.00
2023-03-04T21:03:53.244Z,4.00
2023-03-04T21:06:21.374Z,3.90
2023-03-04T21:08:49.504Z,4.00
2023-03-04T21:11:18.415Z,4.00
2023-03-04T21:13:46.642Z,4.00
2023-03-04T21:16:18.385Z,3.90
2023-03-04T21:18:46.429Z,3.80
2023-03-04T21:21:17.450Z,3.80
2023-03-04T21:23:47.027Z,3.90
2023-03-04T21:26:14.998Z,3.90
2023-03-04T21:28:43.667Z,3.90
2023-03-04T21:31:18.732Z,3.80
2023-03-04T21:33:47.838Z,3.80
2023-03-04T21:36:16.750Z,3.80
2023-03-04T21:38:45.392Z,3.80
2023-03-04T21:41:14.845Z,3.80
2023-03-04T21:43:42.834Z,3.80
2023-03-04T21:46:14.674Z,3.90
2023-03-04T21:48:44.829Z,3.90
2023-03-04T21:51:14.963Z,4.00
2023-03-04T21:53:43.385Z,4.00
2023-03-04T21:56:12.272Z,3.90
2023-03-04T21:58:42.319Z,4.00
2023-03-04T22:01:11.611Z,3.90
2023-03-04T22:03:39.869Z,3.90
2023-03-04T22:06:11.051Z,3.90
2023-03-04T22:08:42.375Z,3.90
2023-03-04T22:11:12.559Z,3.90
2023-03-04T22:13:42.132Z,3.90
2023-03-04T22:16:11.022Z,3.90
2023-03-04T22:18:40.890Z,3.80
2023-03-04T22:21:13.093Z,3.80
2023-03-04T22:23:41.664Z,3.80
2023-03-04T22:26:12.652Z,3.90
2023-03-04T22:28:41.400Z,3.90
2023-03-04T22:31:20.508Z,3.80
2023-03-04T22:33:48.958Z,3.80
2023-03-04T22:36:18.512Z,3.90
2023-03-04T22:38:46.595Z,3.90
2023-03-04T22:41:20.060Z,3.90
2023-03-04T22:43:54.005Z,3.90
2023-03-04T22:46:27.812Z,3.90
2023-03-04T22:48:59.381Z,3.90
2023-03-04T22:51:29.427Z,3.90
2023-03-04T22:53:57.952Z,3.90
2023-03-04T22:56:26.331Z,3.90
2023-03-04T22:58:54.476Z,3.90
2023-03-04T23:01:22.720Z,3.90
2023-03-04T23:03:51.823Z,3.90
2023-03-04T23:06:21.886Z,3.90
2023-03-04T23:08:52.204Z,3.80
2023-03-04T23:11:22.062Z,3.90
2023-03-04T23:13:51.205Z,3.90
2023-03-04T23:16:20.298Z,3.80
2023-03-04T23:18:49.160Z,3.90
2023-03-04T23:21:19.929Z,3.90
2023-03-04T23:23:48.540Z,3.90
2023-03-04T23:26:20.293Z,3.90
2023-03-04T23:28:48.347Z,3.90
2023-03-04T23:31:16.624Z,3.90
2023-03-04T23:33:45.748Z,3.80
2023-03-04T23:36:19.836Z,3.80
2023-03-04T23:38:49.251Z,3.80
2023-03-04T23:41:20.258Z,3.80
2023-03-04T23:43:49.291Z,3.80
2023-03-04T23:46:17.264Z,3.80
2023-03-04T23:48:46.862Z,3.80
2023-03-04T23:51:16.292Z,3.80
2023-03-04T23:53:44.310Z,3.80
2023-03-04T23:56:14.517Z,3.80
2023-03-04T23:58:44.058Z,3.80
